Time;durP1;ratioP1;P1;durP2;ratioP2;P2;SDS_P1;SDS_P2;PMS_P1;PMS_P2;Temp;Humidity;BMP_temperature;BMP_pressure;BME280_temperature;BME280_humidity;BME280_pressure;Samples;Min_cycle;Max_cycle;Signal;HPM_P1;HPM_P2
2023/01/28 00:01:09;;;;;;;6.50;2.47;;;;;;;;;;6185531;23;20024;-78
2023/01/28 00:03:35;;;;;;;2.33;2.10;;;;;;;;;;6209706;23;20020;-78
2023/01/28 00:06:06;;;;;;;2.53;2.10;;;;;;;;;;6209009;23;20103;-79
2023/01/28 00:08:35;;;;;;;5.40;2.28;;;;;;;;;;6183637;23;20027;-79
2023/01/28 00:11:02;;;;;;;3.65;2.50;;;;;;;;;;6210261;23;20015;-79
2023/01/28 00:13:28;;;;;;;8.95;3.53;;;;;;;;;;6209564;23;20138;-79
2023/01/28 00:15:56;;;;;;;10.73;5.43;;;;;;;;;;6209880;23;20027;-79
2023/01/28 00:18:22;;;;;;;4.78;3.38;;;;;;;;;;6185720;23;20025;-80
2023/01/28 00:21:01;;;;;;;10.27;3.60;;;;;;;;;;6184752;23;20039;-80
2023/01/28 00:23:28;;;;;;;3.75;3.38;;;;;;;;;;6184043;23;20016;-81
2023/01/28 00:25:57;;;;;;;5.57;3.58;;;;;;;;;;6209859;23;20016;-80
2023/01/28 00:28:23;;;;;;;8.55;4.28;;;;;;;;;;6209376;23;20728;-80
2023/01/28 00:30:49;;;;;;;6.10;4.07;;;;;;;;;;6159600;23;20715;-80
2023/01/28 00:33:15;;;;;;;6.05;4.47;;;;;;;;;;6204345;23;20163;-80
2023/01/28 00:35:41;;;;;;;5.57;4.55;;;;;;;;;;6204525;23;20521;-80
2023/01/28 00:38:07;;;;;;;5.53;4.93;;;;;;;;;;6202271;23;20017;-80
2023/01/28 00:40:34;;;;;;;4.85;4.32;;;;;;;;;;6202062;23;20023;-80
2023/01/28 00:43:00;;;;;;;5.25;4.75;;;;;;;;;;6176845;23;20569;-80
2023/01/28 00:45:26;;;;;;;7.18;6.30;;;;;;;;;;6178349;23;20016;-80
2023/01/28 00:47:52;;;;;;;5.18;4.68;;;;;;;;;;6178147;23;20387;-81
2023/01/28 00:50:20;;;;;;;6.32;5.00;;;;;;;;;;6202572;23;20043;-79
2023/01/28 00:52:46;;;;;;;5.53;5.03;;;;;;;;;;6203876;23;20020;-78
2023/01/28 00:55:12;;;;;;;7.97;5.05;;;;;;;;;;6177339;23;20086;-79
2023/01/28 00:57:39;;;;;;;7.78;5.68;;;;;;;;;;6203990;23;20510;-79
2023/01/28 01:00:05;;;;;;;6.13;5.53;;;;;;;;;;6202878;23;20017;-79
2023/01/28 01:02:31;;;;;;;8.18;5.15;;;;;;;;;;6203578;23;20013;-79
2023/01/28 01:04:57;;;;;;;5.80;5.20;;;;;;;;;;6202275;23;20107;-79
2023/01/28 01:07:42;;;;;;;5.90;5.35;;;;;;;;;;6202530;23;20020;-80
2023/01/28 01:10:16;;;;;;;6.78;5.20;;;;;;;;;;6179213;23;20020;-80
2023/01/28 01:12:42;;;;;;;6.50;5.90;;;;;;;;;;6178633;23;20123;-81
2023/01/28 01:15:09;;;;;;;6.72;5.68;;;;;;;;;;6177863;23;20474;-80
2023/01/28 01:17:39;;;;;;;6.32;5.72;;;;;;;;;;6204789;23;20099;-80
2023/01/28 01:20:06;;;;;;;6.57;5.97;;;;;;;;;;6180475;23;20016;-81
2023/01/28 01:22:33;;;;;;;7.82;6.18;;;;;;;;;;6183864;23;20027;-79
2023/01/28 01:24:59;;;;;;;7.90;6.40;;;;;;;;;;6219235;23;20019;-79
2023/01/28 01:27:25;;;;;;;8.77;7.32;;;;;;;;;;6221802;23;20027;-79
2023/01/28 01:29:53;;;;;;;7.80;6.07;;;;;;;;;;6195636;23;20091;-80
2023/01/28 01:32:21;;;;;;;8.75;6.65;;;;;;;;;;6211318;23;20015;-81
2023/01/28 01:34:47;;;;;;;7.35;6.45;;;;;;;;;;6234254;23;20019;-81
2023/01/28 01:37:13;;;;;;;7.38;6.60;;;;;;;;;;6233391;23;20020;-81
2023/01/28 01:39:39;;;;;;;6.95;6.25;;;;;;;;;;6209562;23;20486;-79
2023/01/28 01:42:13;;;;;;;7.30;6.60;;;;;;;;;;6208923;23;20466;-81
2023/01/28 01:44:48;;;;;;;8.00;7.15;;;;;;;;;;6207762;23;20074;-80
2023/01/28 01:47:15;;;;;;;7.07;6.38;;;;;;;;;;6202956;23;20056;-81
2023/01/28 01:49:42;;;;;;;6.60;5.93;;;;;;;;;;6203181;23;20079;-81
2023/01/28 01:52:10;;;;;;;7.95;6.45;;;;;;;;;;6179139;23;20095;-81
2023/01/28 01:54:37;;;;;;;7.13;5.88;;;;;;;;;;6205802;23;20371;-81
2023/01/28 01:57:04;;;;;;;7.28;6.50;;;;;;;;;;6204074;23;20020;-80
2023/01/28 01:59:32;;;;;;;7.97;7.18;;;;;;;;;;6204528;23;20470;-80
2023/01/28 02:02:00;;;;;;;8.85;7.60;;;;;;;;;;6204793;23;20017;-81
2023/01/28 02:04:40;;;;;;;7.53;6.72;;;;;;;;;;6203412;23;20153;-80
2023/01/28 02:07:08;;;;;;;7.53;6.72;;;;;;;;;;6205079;23;20020;-81
2023/01/28 02:09:35;;;;;;;7.45;6.72;;;;;;;;;;6202936;23;20064;-79
2023/01/28 02:12:10;;;;;;;6.95;6.25;;;;;;;;;;6203161;23;20020;-80
2023/01/28 02:14:39;;;;;;;8.32;6.93;;;;;;;;;;6200690;23;20024;-80
2023/01/28 02:17:05;;;;;;;7.93;6.05;;;;;;;;;;6202254;23;20026;-81
2023/01/28 02:19:39;;;;;;;7.18;6.47;;;;;;;;;;6150601;23;20099;-80
2023/01/28 02:22:08;;;;;;;9.65;6.68;;;;;;;;;;6175968;23;20017;-80
2023/01/28 02:24:34;;;;;;;7.75;6.68;;;;;;;;;;6176697;23;20083;-80
2023/01/28 02:27:06;;;;;;;9.50;6.43;;;;;;;;;;6176062;23;20083;-81
2023/01/28 02:29:43;;;;;;;7.63;6.75;;;;;;;;;;6199243;23;20052;-78
2023/01/28 02:32:13;;;;;;;6.78;6.07;;;;;;;;;;6199542;23;20275;-79
2023/01/28 02:34:46;;;;;;;7.15;6.38;;;;;;;;;;6200469;23;20032;-80
2023/01/28 02:37:15;;;;;;;7.07;6.05;;;;;;;;;;6200730;23;20026;-80
2023/01/28 02:40:04;;;;;;;7.28;6.28;;;;;;;;;;6176857;23;20090;-80
2023/01/28 02:42:33;;;;;;;6.38;5.65;;;;;;;;;;6157072;23;20091;-80
2023/01/28 02:44:59;;;;;;;9.43;6.18;;;;;;;;;;6201266;23;20090;-80
2023/01/28 02:50:15;;;;;;;8.20;5.63;;;;;;;;;;6200421;23;20025;-81
2023/01/28 02:55:26;;;;;;;7.13;6.00;;;;;;;;;;6202009;23;20051;-80
2023/01/28 02:58:00;;;;;;;6.50;5.78;;;;;;;;;;6177716;23;20017;-79
2023/01/28 03:00:29;;;;;;;7.65;6.35;;;;;;;;;;6202841;23;20043;-79
2023/01/28 03:03:14;;;;;;;7.75;5.55;;;;;;;;;;6204336;23;20510;-80
2023/01/28 03:06:08;;;;;;;9.82;5.93;;;;;;;;;;6177983;23;20119;-80
2023/01/28 03:36:52;;;;;;;7.97;6.22;;;;;;;;;;6207214;23;20024;-80
2023/01/28 03:39:19;;;;;;;10.65;6.05;;;;;;;;;;6205512;23;20088;-80
2023/01/28 03:42:00;;;;;;;6.40;5.53;;;;;;;;;;6207117;23;20025;-81
2023/01/28 03:47:12;;;;;;;6.32;5.45;;;;;;;;;;6205944;23;20043;-79
2023/01/28 03:49:44;;;;;;;5.82;5.22;;;;;;;;;;6203516;23;20027;-80
2023/01/28 03:52:10;;;;;;;9.27;6.07;;;;;;;;;;6205847;23;20035;-79
2023/01/28 03:54:37;;;;;;;6.85;6.18;;;;;;;;;;6201971;23;20019;-79
2023/01/28 03:57:04;;;;;;;8.43;5.75;;;;;;;;;;6200014;23;20023;-79
2023/01/28 03:59:31;;;;;;;6.38;5.72;;;;;;;;;;6176289;23;20020;-79
2023/01/28 04:01:57;;;;;;;8.35;6.32;;;;;;;;;;6201790;23;20149;-80
2023/01/28 04:04:23;;;;;;;7.00;6.30;;;;;;;;;;6199828;23;20021;-80
2023/01/28 04:06:53;;;;;;;6.72;5.50;;;;;;;;;;6200889;23;20024;-80
2023/01/28 04:09:22;;;;;;;6.32;5.65;;;;;;;;;;6177267;23;20017;-80
2023/01/28 04:11:50;;;;;;;6.35;5.70;;;;;;;;;;6202380;23;20052;-79
2023/01/28 04:14:17;;;;;;;6.93;6.15;;;;;;;;;;6202543;23;20023;-79
2023/01/28 04:16:43;;;;;;;7.30;6.03;;;;;;;;;;6153625;23;20020;-80
2023/01/28 04:19:11;;;;;;;7.25;5.95;;;;;;;;;;6204181;23;20048;-81
2023/01/28 04:21:37;;;;;;;7.82;6.40;;;;;;;;;;6203287;23;20355;-80
2023/01/28 04:24:04;;;;;;;9.15;6.30;;;;;;;;;;6203004;23;20792;-80
2023/01/28 04:26:30;;;;;;;7.20;6.50;;;;;;;;;;6154781;23;20020;-80
2023/01/28 04:28:56;;;;;;;7.10;6.40;;;;;;;;;;6179082;23;20048;-80
2023/01/28 04:31:22;;;;;;;8.90;6.80;;;;;;;;;;6178941;23;20112;-80
2023/01/28 04:33:49;;;;;;;7.32;6.35;;;;;;;;;;6158329;23;20047;-80
2023/01/28 04:36:15;;;;;;;7.68;6.85;;;;;;;;;;6209090;23;20351;-80
2023/01/28 04:38:41;;;;;;;9.07;6.53;;;;;;;;;;6160121;23;20016;-82
2023/01/28 04:41:07;;;;;;;9.70;6.78;;;;;;;;;;6183771;23;20012;-80
2023/01/28 04:43:34;;;;;;;8.55;7.30;;;;;;;;;;6208655;23;20090;-80
2023/01/28 04:46:00;;;;;;;10.55;7.07;;;;;;;;;;6210055;23;20024;-80
2023/01/28 04:48:26;;;;;;;11.13;7.05;;;;;;;;;;6184678;23;20476;-80
2023/01/28 04:50:52;;;;;;;9.95;6.97;;;;;;;;;;6209514;23;20012;-80
2023/01/28 04:53:18;;;;;;;8.65;6.65;;;;;;;;;;6237333;23;20034;-79
2023/01/28 04:55:44;;;;;;;7.57;6.88;;;;;;;;;;6210799;23;20024;-80
2023/01/28 04:58:10;;;;;;;7.35;6.63;;;;;;;;;;6191673;23;20023;-81
2023/01/28 05:00:37;;;;;;;14.18;6.90;;;;;;;;;;6215083;23;20012;-80
2023/01/28 05:03:03;;;;;;;7.47;6.68;;;;;;;;;;6171648;23;20016;-79
2023/01/28 05:05:29;;;;;;;8.40;6.70;;;;;;;;;;6202699;23;20039;-79
2023/01/28 05:07:55;;;;;;;7.15;6.45;;;;;;;;;;6228364;23;20012;-80
2023/01/28 05:10:22;;;;;;;6.90;6.13;;;;;;;;;;6228507;22;20007;-81
2023/01/28 05:12:48;;;;;;;7.15;6.45;;;;;;;;;;6234831;22;20064;-80
2023/01/28 05:15:15;;;;;;;8.02;7.18;;;;;;;;;;6233510;23;20054;-80
2023/01/28 05:17:42;;;;;;;8.43;7.05;;;;;;;;;;6185145;23;20094;-80
2023/01/28 05:20:08;;;;;;;7.82;7.00;;;;;;;;;;6205912;23;20545;-81
2023/01/28 05:22:35;;;;;;;9.05;6.68;;;;;;;;;;6182838;23;20085;-80
2023/01/28 05:25:02;;;;;;;8.02;6.60;;;;;;;;;;6207852;23;20020;-80
2023/01/28 05:27:28;;;;;;;9.98;6.60;;;;;;;;;;6235011;23;20079;-80
2023/01/28 05:29:54;;;;;;;8.70;6.90;;;;;;;;;;6182543;23;20026;-80
2023/01/28 05:32:21;;;;;;;11.25;6.30;;;;;;;;;;6182491;23;20803;-81
2023/01/28 05:34:48;;;;;;;8.27;7.10;;;;;;;;;;6157851;23;20098;-80
2023/01/28 05:37:14;;;;;;;10.98;6.85;;;;;;;;;;6182402;23;20016;-80
2023/01/28 05:39:40;;;;;;;8.50;7.18;;;;;;;;;;6207075;23;20020;-79
2023/01/28 05:42:06;;;;;;;8.05;6.47;;;;;;;;;;6184967;23;20020;-80
2023/01/28 05:44:32;;;;;;;8.93;6.82;;;;;;;;;;6210195;23;20016;-80
2023/01/28 05:46:58;;;;;;;7.43;6.32;;;;;;;;;;6185125;23;20012;-80
2023/01/28 05:49:27;;;;;;;9.07;6.78;;;;;;;;;;6209960;23;20018;-80
2023/01/28 05:51:53;;;;;;;12.18;6.80;;;;;;;;;;6186057;23;20074;-79
2023/01/28 05:54:19;;;;;;;8.52;6.43;;;;;;;;;;6185608;23;20020;-79
2023/01/28 05:56:46;;;;;;;10.30;6.90;;;;;;;;;;6210383;23;20462;-80
2023/01/28 05:59:12;;;;;;;9.18;6.85;;;;;;;;;;6209084;23;20459;-79
2023/01/28 06:01:39;;;;;;;6.93;5.93;;;;;;;;;;6210445;23;20020;-79
2023/01/28 06:04:05;;;;;;;6.80;6.10;;;;;;;;;;6209585;23;20066;-78
2023/01/28 06:06:31;;;;;;;7.03;5.95;;;;;;;;;;6236940;23;20023;-80
2023/01/28 06:08:57;;;;;;;9.20;7.15;;;;;;;;;;6209593;23;20038;-80
2023/01/28 06:11:23;;;;;;;7.32;6.53;;;;;;;;;;6210294;23;20069;-80
2023/01/28 06:13:49;;;;;;;8.05;6.70;;;;;;;;;;6162591;23;20019;-80
2023/01/28 06:16:15;;;;;;;8.07;6.38;;;;;;;;;;6191926;23;20044;-80
2023/01/28 06:18:41;;;;;;;8.25;6.60;;;;;;;;;;6160948;23;20023;-80
2023/01/28 06:21:07;;;;;;;6.88;5.95;;;;;;;;;;6208713;23;20020;-79
2023/01/28 06:23:33;;;;;;;7.30;6.30;;;;;;;;;;6209729;23;20024;-80
2023/01/28 06:26:00;;;;;;;10.45;6.60;;;;;;;;;;6209291;23;20070;-80
2023/01/28 06:28:26;;;;;;;7.35;6.32;;;;;;;;;;6183340;23;20111;-80
2023/01/28 06:30:52;;;;;;;7.43;6.53;;;;;;;;;;6183078;23;20015;-79
2023/01/28 06:33:19;;;;;;;7.40;6.63;;;;;;;;;;6159669;23;20016;-81
2023/01/28 06:35:45;;;;;;;6.93;5.90;;;;;;;;;;6189302;23;20071;-80
2023/01/28 06:38:12;;;;;;;8.02;6.03;;;;;;;;;;6214822;23;20027;-80
2023/01/28 06:40:38;;;;;;;8.25;6.50;;;;;;;;;;6215859;23;20039;-81
2023/01/28 06:43:04;;;;;;;10.63;6.60;;;;;;;;;;6187603;23;20027;-80
2023/01/28 06:45:31;;;;;;;9.15;6.13;;;;;;;;;;6209982;23;20024;-80
2023/01/28 06:47:57;;;;;;;6.97;6.05;;;;;;;;;;6192178;23;20015;-80
2023/01/28 06:50:23;;;;;;;7.47;6.60;;;;;;;;;;6173790;23;20035;-79
2023/01/28 06:52:49;;;;;;;7.82;6.45;;;;;;;;;;6231885;22;20000;-80
2023/01/28 06:55:15;;;;;;;8.15;6.38;;;;;;;;;;6262268;22;20030;-81
2023/01/28 06:57:44;;;;;;;6.85;6.15;;;;;;;;;;6229043;23;20028;-80
2023/01/28 07:00:14;;;;;;;8.45;6.80;;;;;;;;;;6235162;23;20015;-80
2023/01/28 07:02:40;;;;;;;13.50;6.90;;;;;;;;;;6183935;23;20020;-80
2023/01/28 07:05:06;;;;;;;7.65;6.70;;;;;;;;;;6234962;23;20342;-80
2023/01/28 07:07:32;;;;;;;9.85;7.43;;;;;;;;;;6183835;23;20071;-80
2023/01/28 07:09:59;;;;;;;9.68;7.55;;;;;;;;;;6184009;23;20726;-80
2023/01/28 07:12:25;;;;;;;10.65;7.95;;;;;;;;;;6183936;23;20571;-79
2023/01/28 07:14:51;;;;;;;9.20;7.63;;;;;;;;;;6182822;23;20023;-79
2023/01/28 07:17:17;;;;;;;9.13;7.82;;;;;;;;;;6234664;23;20378;-78
2023/01/28 07:19:43;;;;;;;8.52;6.88;;;;;;;;;;6206808;23;20680;-80
2023/01/28 07:22:10;;;;;;;9.40;7.35;;;;;;;;;;6206752;23;20107;-79
2023/01/28 07:24:36;;;;;;;8.70;7.72;;;;;;;;;;6181512;23;20047;-80
2023/01/28 07:27:03;;;;;;;10.25;7.10;;;;;;;;;;6182878;23;20038;-81
2023/01/28 07:29:30;;;;;;;10.25;7.65;;;;;;;;;;6208794;23;20024;-82
2023/01/28 07:31:57;;;;;;;11.57;7.65;;;;;;;;;;6182046;23;20099;-78
2023/01/28 07:34:23;;;;;;;8.65;7.20;;;;;;;;;;6180268;23;20089;-80
2023/01/28 07:36:49;;;;;;;14.32;8.07;;;;;;;;;;6206820;23;20303;-81
2023/01/28 07:39:15;;;;;;;9.68;7.80;;;;;;;;;;6209955;23;20082;-78
2023/01/28 07:41:42;;;;;;;10.38;8.35;;;;;;;;;;6232926;23;20736;-78
2023/01/28 07:44:08;;;;;;;10.57;8.27;;;;;;;;;;6231643;23;20016;-80
2023/01/28 07:46:34;;;;;;;8.98;7.82;;;;;;;;;;6206881;23;20023;-78
2023/01/28 07:49:01;;;;;;;10.85;8.63;;;;;;;;;;6236156;23;20019;-79
2023/01/28 07:51:27;;;;;;;9.95;8.70;;;;;;;;;;6182413;23;20051;-79
2023/01/28 07:53:53;;;;;;;11.63;8.38;;;;;;;;;;6185266;23;20016;-80
2023/01/28 07:56:20;;;;;;;10.48;8.77;;;;;;;;;;6210395;23;20020;-79
2023/01/28 07:58:49;;;;;;;15.50;10.18;;;;;;;;;;6161005;23;20012;-80
2023/01/28 08:01:15;;;;;;;12.45;9.60;;;;;;;;;;6209856;23;20020;-79
2023/01/28 08:03:41;;;;;;;13.65;12.25;;;;;;;;;;6159620;23;20026;-79
2023/01/28 08:06:07;;;;;;;12.52;10.15;;;;;;;;;;6187448;23;20082;-81
2023/01/28 08:08:33;;;;;;;13.23;9.80;;;;;;;;;;6172231;23;20012;-82
2023/01/28 08:11:05;;;;;;;11.05;9.13;;;;;;;;;;6246977;23;20016;-82
2023/01/28 08:13:31;;;;;;;16.25;10.68;;;;;;;;;;6195826;23;20050;-80
2023/01/28 08:15:58;;;;;;;13.25;9.48;;;;;;;;;;6169701;23;20016;-79
2023/01/28 08:18:24;;;;;;;12.32;10.10;;;;;;;;;;6217282;23;20020;-80
2023/01/28 08:20:54;;;;;;;15.57;9.13;;;;;;;;;;6164157;23;20012;-82
2023/01/28 08:23:20;;;;;;;11.27;9.30;;;;;;;;;;6241120;23;20024;-80
2023/01/28 08:25:47;;;;;;;11.23;9.32;;;;;;;;;;6171546;23;20015;-80
2023/01/28 08:28:14;;;;;;;11.13;9.63;;;;;;;;;;6253483;23;20039;-80
2023/01/28 08:30:40;;;;;;;200.18;25.30;;;;;;;;;;6208704;23;20056;-82
2023/01/28 08:33:08;;;;;;;25.95;10.02;;;;;;;;;;6237584;22;20019;-80
2023/01/28 08:35:34;;;;;;;11.73;9.30;;;;;;;;;;6228805;23;20097;-80
2023/01/28 08:38:01;;;;;;;10.75;8.85;;;;;;;;;;6212416;23;20040;-80
2023/01/28 08:40:28;;;;;;;10.57;8.57;;;;;;;;;;6213563;23;20126;-80
2023/01/28 08:42:55;;;;;;;11.57;8.68;;;;;;;;;;6212326;23;20338;-80
2023/01/28 08:45:24;;;;;;;10.10;8.80;;;;;;;;;;6186876;23;20673;-79
2023/01/28 08:48:00;;;;;;;11.52;8.63;;;;;;;;;;6210410;23;20020;-81
2023/01/28 08:50:27;;;;;;;9.90;8.77;;;;;;;;;;6209681;23;20046;-79
2023/01/28 08:52:57;;;;;;;9.40;8.10;;;;;;;;;;6183476;23;20016;-79
2023/01/28 08:55:24;;;;;;;10.15;8.48;;;;;;;;;;6209185;23;20020;-79
2023/01/28 08:57:50;;;;;;;9.48;7.90;;;;;;;;;;6162531;23;20659;-80
2023/01/28 09:00:16;;;;;;;10.15;8.88;;;;;;;;;;6237320;23;20023;-80
2023/01/28 09:02:42;;;;;;;11.85;8.82;;;;;;;;;;6210858;23;20016;-80
2023/01/28 09:05:09;;;;;;;10.63;8.50;;;;;;;;;;6238754;23;20100;-80
2023/01/28 09:07:35;;;;;;;10.00;8.40;;;;;;;;;;6237553;23;20418;-79
2023/01/28 09:10:03;;;;;;;23.60;8.00;;;;;;;;;;6237894;23;20450;-80
2023/01/28 09:12:29;;;;;;;10.38;8.13;;;;;;;;;;6211499;23;20039;-80
2023/01/28 09:14:55;;;;;;;18.40;8.68;;;;;;;;;;6207361;23;20023;-77
2023/01/28 09:17:21;;;;;;;13.68;7.90;;;;;;;;;;6206607;23;20044;-77
2023/01/28 09:19:47;;;;;;;14.63;7.80;;;;;;;;;;6234470;23;20171;-77
2023/01/28 09:22:13;;;;;;;8.73;7.40;;;;;;;;;;6231369;23;20063;-76
2023/01/28 09:24:39;;;;;;;11.57;8.90;;;;;;;;;;6201748;23;20745;-77
2023/01/28 09:27:06;;;;;;;12.57;7.00;;;;;;;;;;6233363;23;20012;-77
2023/01/28 09:29:36;;;;;;;7.95;6.90;;;;;;;;;;6204503;23;20019;-76
2023/01/28 09:32:03;;;;;;;10.73;7.68;;;;;;;;;;6204708;23;20074;-77
2023/01/28 09:34:29;;;;;;;9.90;7.00;;;;;;;;;;6205267;23;20701;-76
2023/01/28 09:37:01;;;;;;;7.10;6.35;;;;;;;;;;6182154;23;20070;-76
2023/01/28 09:39:29;;;;;;;11.90;7.45;;;;;;;;;;6208006;23;20097;-76
2023/01/28 09:42:08;;;;;;;9.48;6.75;;;;;;;;;;6159270;23;20016;-77
2023/01/28 09:44:53;;;;;;;9.43;6.95;;;;;;;;;;6208269;23;20015;-76
2023/01/28 09:47:23;;;;;;;8.25;6.57;;;;;;;;;;6210023;23;20104;-77
2023/01/28 09:49:52;;;;;;;15.18;7.05;;;;;;;;;;6208491;23;20426;-77
2023/01/28 09:52:21;;;;;;;7.47;6.65;;;;;;;;;;6209248;23;20020;-78
2023/01/28 09:54:54;;;;;;;8.73;7.45;;;;;;;;;;6236233;23;20016;-77
2023/01/28 09:57:25;;;;;;;8.87;7.30;;;;;;;;;;6209435;23;20024;-79
2023/01/28 09:59:51;;;;;;;8.07;6.60;;;;;;;;;;6209622;23;20350;-77
2023/01/28 10:02:37;;;;;;;8.80;6.43;;;;;;;;;;6187271;23;20773;-78
2023/01/28 10:05:10;;;;;;;8.73;6.75;;;;;;;;;;6212471;23;20016;-77
2023/01/28 10:07:36;;;;;;;10.13;7.05;;;;;;;;;;6217940;23;20019;-78
2023/01/28 10:10:09;;;;;;;7.63;6.38;;;;;;;;;;6222675;23;20220;-77
2023/01/28 10:12:47;;;;;;;7.22;6.43;;;;;;;;;;6198443;23;20016;-77
2023/01/28 10:15:32;;;;;;;9.10;7.25;;;;;;;;;;6212920;22;20071;-77
2023/01/28 10:18:04;;;;;;;8.27;6.90;;;;;;;;;;6237368;23;20032;-78
2023/01/28 10:20:32;;;;;;;8.13;6.40;;;;;;;;;;6250135;22;20024;-77
2023/01/28 10:23:08;;;;;;;9.13;6.90;;;;;;;;;;6208611;23;20020;-78
2023/01/28 10:25:34;;;;;;;7.35;6.57;;;;;;;;;;6208834;23;20020;-78
2023/01/28 10:28:01;;;;;;;8.73;7.35;;;;;;;;;;6184515;23;20323;-77
2023/01/28 10:30:31;;;;;;;8.13;6.65;;;;;;;;;;6208766;23;20027;-77
2023/01/28 10:33:31;;;;;;;8.25;6.55;;;;;;;;;;6202423;23;20017;-78
2023/01/28 10:35:57;;;;;;;7.75;6.68;;;;;;;;;;6122947;23;20392;-79
2023/01/28 10:38:25;;;;;;;7.60;6.78;;;;;;;;;;6178332;23;20424;-78
2023/01/28 10:40:51;;;;;;;10.75;6.53;;;;;;;;;;6203295;23;20027;-78
2023/01/28 10:43:22;;;;;;;8.02;6.93;;;;;;;;;;6203056;23;20713;-78
2023/01/28 10:46:01;;;;;;;8.27;6.78;;;;;;;;;;6205676;23;20013;-78
2023/01/28 10:48:33;;;;;;;8.38;6.70;;;;;;;;;;6204876;23;20016;-79
2023/01/28 10:51:03;;;;;;;6.13;5.43;;;;;;;;;;6176263;23;20024;-77
2023/01/28 10:53:40;;;;;;;8.65;6.88;;;;;;;;;;6199740;23;20027;-78
2023/01/28 10:56:09;;;;;;;8.82;6.25;;;;;;;;;;6152391;23;20066;-79
2023/01/28 10:58:46;;;;;;;10.15;6.38;;;;;;;;;;6176555;23;20126;-77
2023/01/28 11:01:13;;;;;;;7.28;6.10;;;;;;;;;;6201653;23;20021;-79
2023/01/28 11:03:40;;;;;;;8.10;6.35;;;;;;;;;;6202961;23;20027;-79
2023/01/28 11:06:22;;;;;;;6.60;5.75;;;;;;;;;;6201269;23;20115;-78
2023/01/28 11:08:49;;;;;;;8.93;6.60;;;;;;;;;;6203045;23;20036;-78
2023/01/28 11:11:15;;;;;;;8.50;6.65;;;;;;;;;;6208671;23;20032;-79
2023/01/28 11:13:49;;;;;;;7.05;5.88;;;;;;;;;;6205076;23;20091;-80
2023/01/28 11:16:17;;;;;;;7.25;6.50;;;;;;;;;;6200759;23;20466;-77
2023/01/28 11:18:51;;;;;;;7.28;6.57;;;;;;;;;;6201764;23;20036;-77
2023/01/28 11:21:35;;;;;;;10.20;6.15;;;;;;;;;;6203262;23;20024;-78
2023/01/28 11:24:22;;;;;;;9.30;6.10;;;;;;;;;;6178893;23;20017;-77
2023/01/28 11:26:49;;;;;;;6.43;5.80;;;;;;;;;;6178197;23;20016;-79
2023/01/28 11:29:22;;;;;;;6.63;5.93;;;;;;;;;;6201688;23;20123;-78
2023/01/28 11:31:48;;;;;;;9.35;6.13;;;;;;;;;;6174444;23;20025;-76
2023/01/28 11:34:16;;;;;;;9.68;6.57;;;;;;;;;;6201257;23;20009;-76
2023/01/28 11:36:49;;;;;;;9.90;6.57;;;;;;;;;;6199710;23;20024;-76
2023/01/28 11:39:19;;;;;;;9.98;6.00;;;;;;;;;;6174733;23;20020;-78
2023/01/28 11:41:46;;;;;;;8.70;6.20;;;;;;;;;;6203074;23;20359;-77
2023/01/28 11:44:12;;;;;;;9.77;6.93;;;;;;;;;;6209268;23;20326;-79
2023/01/28 11:46:55;;;;;;;7.78;5.82;;;;;;;;;;6219767;23;20013;-77
2023/01/28 11:49:24;;;;;;;7.97;6.15;;;;;;;;;;6221725;23;20013;-78
2023/01/28 11:51:56;;;;;;;9.43;5.88;;;;;;;;;;6206317;23;20040;-78
2023/01/28 11:54:22;;;;;;;9.77;6.18;;;;;;;;;;6222272;23;20299;-77
2023/01/28 11:57:07;;;;;;;9.88;6.07;;;;;;;;;;6201632;23;20342;-80
2023/01/28 11:59:36;;;;;;;8.18;5.22;;;;;;;;;;6204434;23;20089;-78
2023/01/28 12:02:20;;;;;;;6.40;5.28;;;;;;;;;;6205561;23;20325;-79
2023/01/28 12:05:04;;;;;;;7.28;5.35;;;;;;;;;;6212928;23;20024;-79
2023/01/28 12:07:45;;;;;;;7.63;5.38;;;;;;;;;;6187967;23;20103;-78
2023/01/28 12:10:15;;;;;;;6.95;5.32;;;;;;;;;;6216257;23;20035;-78
2023/01/28 12:12:54;;;;;;;8.02;5.78;;;;;;;;;;6215352;23;20032;-78
2023/01/28 12:15:20;;;;;;;6.75;4.80;;;;;;;;;;6210131;23;20083;-79
2023/01/28 12:17:52;;;;;;;8.02;5.57;;;;;;;;;;6204420;23;20016;-78
2023/01/28 12:20:33;;;;;;;6.18;4.68;;;;;;;;;;6202640;23;20636;-79
2023/01/28 12:22:59;;;;;;;8.38;5.72;;;;;;;;;;6180741;23;20021;-78
2023/01/28 12:25:28;;;;;;;7.28;5.97;;;;;;;;;;6202754;23;20027;-78
2023/01/28 12:28:00;;;;;;;7.53;5.50;;;;;;;;;;6179577;23;20024;-78
2023/01/28 12:30:29;;;;;;;8.13;6.57;;;;;;;;;;6200526;23;20047;-77
2023/01/28 12:33:14;;;;;;;9.23;6.38;;;;;;;;;;6198134;23;20050;-77
2023/01/28 12:35:45;;;;;;;10.52;4.95;;;;;;;;;;6202313;23;20024;-76
2023/01/28 12:38:22;;;;;;;8.73;4.78;;;;;;;;;;6197273;23;20071;-76
2023/01/28 12:41:07;;;;;;;9.55;5.82;;;;;;;;;;6173272;23;20025;-76
2023/01/28 12:43:39;;;;;;;8.98;6.80;;;;;;;;;;6201308;23;20044;-76
2023/01/28 12:46:22;;;;;;;8.80;6.15;;;;;;;;;;6175725;23;20418;-76
2023/01/28 12:48:51;;;;;;;6.50;5.40;;;;;;;;;;6200991;23;20027;-76
2023/01/28 12:51:17;;;;;;;9.43;6.63;;;;;;;;;;6200623;23;20509;-76
2023/01/28 12:53:49;;;;;;;8.38;6.30;;;;;;;;;;6199030;23;20020;-76
2023/01/28 12:56:31;;;;;;;8.25;5.85;;;;;;;;;;6200788;23;20020;-76
2023/01/28 12:59:00;;;;;;;9.65;6.10;;;;;;;;;;6199139;23;20048;-77
2023/01/28 13:01:46;;;;;;;8.07;6.30;;;;;;;;;;6196616;23;20027;-77
2023/01/28 13:04:31;;;;;;;14.18;5.97;;;;;;;;;;6136213;23;20017;-76
2023/01/28 13:07:09;;;;;;;7.38;5.72;;;;;;;;;;6199281;23;20024;-75
2023/01/28 13:09:37;;;;;;;7.05;5.85;;;;;;;;;;6199714;23;20016;-77
2023/01/28 13:12:04;;;;;;;11.25;6.85;;;;;;;;;;6200855;23;20021;-77
2023/01/28 13:14:32;;;;;;;9.43;6.28;;;;;;;;;;6173988;23;20047;-76
2023/01/28 13:17:33;;;;;;;7.18;5.75;;;;;;;;;;6198546;23;20422;-76
2023/01/28 13:20:00;;;;;;;9.20;6.20;;;;;;;;;;6056066;23;20061;-78
2023/01/28 13:22:34;;;;;;;7.28;5.13;;;;;;;;;;6160496;23;20096;-77
2023/01/28 13:25:19;;;;;;;8.70;5.60;;;;;;;;;;6189910;23;20016;-77
2023/01/28 13:27:54;;;;;;;7.72;5.78;;;;;;;;;;6222170;23;20017;-76
2023/01/28 13:30:27;;;;;;;8.95;5.68;;;;;;;;;;6225544;23;20039;-76
2023/01/28 13:32:56;;;;;;;7.40;5.47;;;;;;;;;;6212842;23;20039;-77
2023/01/28 13:35:40;;;;;;;9.65;5.65;;;;;;;;;;6197554;23;20047;-76
2023/01/28 13:38:16;;;;;;;11.25;5.10;;;;;;;;;;6197741;23;20019;-76
2023/01/28 13:40:43;;;;;;;7.72;6.07;;;;;;;;;;6201747;23;20705;-77
2023/01/28 13:43:26;;;;;;;8.15;6.00;;;;;;;;;;6176018;23;20063;-78
2023/01/28 13:45:57;;;;;;;11.37;6.47;;;;;;;;;;6202805;23;20021;-78
2023/01/28 13:48:32;;;;;;;9.00;6.55;;;;;;;;;;6202361;23;20051;-78
2023/01/28 13:50:58;;;;;;;8.10;6.38;;;;;;;;;;6176285;23;20017;-78
2023/01/28 13:53:41;;;;;;;9.48;5.78;;;;;;;;;;6199405;23;20021;-79
2023/01/28 13:56:19;;;;;;;10.90;6.30;;;;;;;;;;6201919;23;20048;-77
2023/01/28 13:58:57;;;;;;;11.63;6.22;;;;;;;;;;6200953;23;20016;-77
2023/01/28 14:01:46;;;;;;;10.02;6.65;;;;;;;;;;6175981;23;20027;-77
2023/01/28 14:04:20;;;;;;;11.98;6.85;;;;;;;;;;6179343;23;20020;-77
2023/01/28 14:07:04;;;;;;;8.93;6.63;;;;;;;;;;6199633;23;20012;-78
2023/01/28 14:10:09;;;;;;;11.65;7.10;;;;;;;;;;6172114;23;20028;-78
2023/01/28 14:12:41;;;;;;;11.30;7.30;;;;;;;;;;6031277;23;20026;-78
2023/01/28 14:15:13;;;;;;;13.93;7.95;;;;;;;;;;6056821;23;20097;-78
2023/01/28 14:17:42;;;;;;;12.65;7.57;;;;;;;;;;6134284;23;20433;-77
2023/01/28 14:20:20;;;;;;;10.43;7.18;;;;;;;;;;6196722;23;20085;-77
2023/01/28 14:22:47;;;;;;;10.27;7.18;;;;;;;;;;6197416;23;20012;-78
2023/01/28 14:25:18;;;;;;;10.70;6.40;;;;;;;;;;6197827;23;20619;-76
2023/01/28 14:27:47;;;;;;;8.07;6.60;;;;;;;;;;6197200;23;20116;-77
2023/01/28 14:30:32;;;;;;;11.82;7.63;;;;;;;;;;6198224;23;20068;-78
2023/01/28 14:32:58;;;;;;;12.50;7.38;;;;;;;;;;6197824;23;20029;-77
2023/01/28 14:35:32;;;;;;;11.25;7.55;;;;;;;;;;6171977;23;20379;-78
2023/01/28 14:38:00;;;;;;;10.45;8.00;;;;;;;;;;6198500;23;20030;-78
2023/01/28 14:40:28;;;;;;;12.60;7.43;;;;;;;;;;6173821;23;20089;-78
2023/01/28 14:42:54;;;;;;;9.25;7.35;;;;;;;;;;6203024;23;20016;-78
2023/01/28 14:45:30;;;;;;;18.80;7.40;;;;;;;;;;6176506;23;20027;-76
2023/01/28 14:48:05;;;;;;;10.82;7.07;;;;;;;;;;6201324;23;20023;-77
2023/01/28 14:50:56;;;;;;;13.02;7.68;;;;;;;;;;6200198;23;20021;-76
2023/01/28 14:53:41;;;;;;;11.15;7.72;;;;;;;;;;6200588;23;20020;-76
2023/01/28 14:56:07;;;;;;;10.65;7.72;;;;;;;;;;6174504;23;20016;-77
2023/01/28 14:58:38;;;;;;;10.45;7.50;;;;;;;;;;6203778;23;20058;-76
2023/01/28 15:01:04;;;;;;;12.45;7.60;;;;;;;;;;6212512;23;20347;-77
2023/01/28 15:03:31;;;;;;;11.35;7.60;;;;;;;;;;6161780;23;20044;-71
2023/01/28 15:06:04;;;;;;;9.85;7.47;;;;;;;;;;6220880;23;20024;-71
2023/01/28 15:08:31;;;;;;;9.00;7.07;;;;;;;;;;6223473;23;20043;-71
2023/01/28 15:10:57;;;;;;;10.10;7.60;;;;;;;;;;6209073;23;20032;-71
2023/01/28 15:13:26;;;;;;;9.15;7.00;;;;;;;;;;6196564;23;20016;-71
2023/01/28 15:15:57;;;;;;;11.35;7.45;;;;;;;;;;6196216;23;20123;-71
2023/01/28 15:18:37;;;;;;;11.30;7.20;;;;;;;;;;6194773;23;20024;-70
2023/01/28 15:21:03;;;;;;;9.25;6.57;;;;;;;;;;6194704;23;20028;-70
2023/01/28 15:23:34;;;;;;;10.98;7.43;;;;;;;;;;6195042;23;20824;-70
2023/01/28 15:26:04;;;;;;;12.65;7.50;;;;;;;;;;6196542;23;20021;-71
2023/01/28 15:28:31;;;;;;;10.77;7.40;;;;;;;;;;6197406;23;20047;-71
2023/01/28 15:31:00;;;;;;;10.30;6.88;;;;;;;;;;6194671;23;20167;-70